createdAt,value
2023-05-13T00:00:39.149Z,6.79
2023-05-13T00:03:23.885Z,6.71
2023-05-13T00:06:08.813Z,6.64
2023-05-13T00:08:53.741Z,6.60
2023-05-13T00:11:38.479Z,6.60
2023-05-13T00:14:23.640Z,6.61
2023-05-13T00:17:08.510Z,6.67
2023-05-13T00:19:53.610Z,6.69
2023-05-13T00:22:38.643Z,6.69
2023-05-13T00:25:23.705Z,6.71
2023-05-13T00:28:08.633Z,6.73
2023-05-13T00:30:53.657Z,6.78
2023-05-13T00:33:38.697Z,6.84
2023-05-13T00:36:23.785Z,6.81
2023-05-13T00:39:08.830Z,6.73
2023-05-13T00:41:54.930Z,6.63
2023-05-13T00:44:40.248Z,6.55
2023-05-13T00:47:25.049Z,6.49
2023-05-13T00:50:11.399Z,6.40
2023-05-13T00:52:58.063Z,6.29
2023-05-13T00:55:44.763Z,6.19
2023-05-13T00:58:29.817Z,6.12
2023-05-13T01:01:25.776Z,6.06
2023-05-13T01:04:33.472Z,6.01
2023-05-13T01:07:46.022Z,5.92
2023-05-13T01:10:58.689Z,5.79
2023-05-13T01:13:47.643Z,5.72
2023-05-13T01:17:00.807Z,5.62
2023-05-13T01:19:57.179Z,5.56
2023-05-13T01:22:42.122Z,5.51
2023-05-13T01:25:26.632Z,5.48
2023-05-13T01:28:11.690Z,5.47
2023-05-13T01:30:58.791Z,5.41
2023-05-13T01:33:45.587Z,5.41
2023-05-13T01:36:31.567Z,5.40
2023-05-13T01:39:19.494Z,5.42
2023-05-13T01:42:06.150Z,5.41
2023-05-13T01:44:51.575Z,5.40
2023-05-13T01:47:36.164Z,5.42
2023-05-13T01:50:21.136Z,5.42
2023-05-13T01:53:06.471Z,5.43
2023-05-13T01:55:51.324Z,5.41
2023-05-13T01:58:36.234Z,5.37
2023-05-13T02:01:22.751Z,5.30
2023-05-13T02:04:07.787Z,5.27
2023-05-13T02:06:52.551Z,5.22
2023-05-13T02:09:37.546Z,5.22
2023-05-13T02:12:23.677Z,5.21
2023-05-13T02:15:08.478Z,5.21
2023-05-13T02:17:53.451Z,5.22
2023-05-13T02:20:38.596Z,5.25
2023-05-13T02:23:23.464Z,5.26
2023-05-13T02:26:07.923Z,5.30
2023-05-13T02:28:52.395Z,5.35
2023-05-13T02:31:37.133Z,5.38
2023-05-13T02:34:22.026Z,5.46
2023-05-13T02:37:06.777Z,5.54
2023-05-13T02:39:57.299Z,5.61
2023-05-13T02:42:42.777Z,5.70
2023-05-13T02:45:28.822Z,5.82
2023-05-13T02:48:15.385Z,5.97
2023-05-13T02:51:00.134Z,6.12
2023-05-13T02:53:45.186Z,6.36
2023-05-13T02:56:29.638Z,6.56
2023-05-13T02:59:14.080Z,6.77
2023-05-13T03:01:59.091Z,6.97
2023-05-13T03:04:43.490Z,7.22
2023-05-13T03:07:28.047Z,7.50
2023-05-13T03:10:13.432Z,7.80
2023-05-13T03:12:58.069Z,8.11
2023-05-13T03:15:44.399Z,8.45
2023-05-13T03:18:32.059Z,8.78
2023-05-13T03:21:17.959Z,9.09
2023-05-13T03:24:03.129Z,9.41
2023-05-13T03:26:48.618Z,9.75
2023-05-13T03:29:33.396Z,10.07
2023-05-13T03:32:18.751Z,10.41
2023-05-13T03:35:04.240Z,10.75
2023-05-13T03:37:49.821Z,11.07
2023-05-13T03:40:36.013Z,11.35
2023-05-13T03:43:20.971Z,11.60
2023-05-13T03:46:11.984Z,11.88
2023-05-13T03:48:57.167Z,12.12
2023-05-13T03:51:45.080Z,12.42
2023-05-13T03:54:30.611Z,12.72
2023-05-13T03:57:15.684Z,13.03
2023-05-13T04:00:00.513Z,13.30
2023-05-13T04:02:45.488Z,13.60
2023-05-13T04:05:30.596Z,13.86
2023-05-13T04:08:15.300Z,14.01
2023-05-13T04:11:01.087Z,14.12
2023-05-13T04:13:45.609Z,14.33
2023-05-13T04:16:30.826Z,14.64
2023-05-13T04:19:15.487Z,14.98
2023-05-13T04:22:00.429Z,15.33
2023-05-13T04:24:44.893Z,15.73
2023-05-13T04:27:29.491Z,16.03
2023-05-13T04:30:24.021Z,16.30
2023-05-13T04:33:09.264Z,16.56
2023-05-13T04:35:55.974Z,16.68
2023-05-13T04:38:41.048Z,16.80
2023-05-13T04:41:25.564Z,16.98
2023-05-13T04:44:10.581Z,17.17
2023-05-13T04:46:55.437Z,17.30
2023-05-13T04:49:39.926Z,17.42
2023-05-13T04:52:24.930Z,17.56
2023-05-13T04:55:10.235Z,17.58
2023-05-13T04:57:54.952Z,17.55
2023-05-13T05:00:40.040Z,17.66
2023-05-13T05:03:25.259Z,17.74
2023-05-13T05:06:10.380Z,17.83
2023-05-13T05:08:55.011Z,18.01
2023-05-13T05:11:40.078Z,18.22
2023-05-13T05:14:25.390Z,18.34
2023-05-13T05:17:10.415Z,18.53
2023-05-13T05:19:55.254Z,18.74
2023-05-13T05:22:41.354Z,18.89
2023-05-13T05:25:27.824Z,18.98
2023-05-13T05:28:12.816Z,19.12
2023-05-13T05:31:01.387Z,19.23
2023-05-13T05:33:48.047Z,19.24
2023-05-13T05:36:32.920Z,19.12
2023-05-13T05:39:17.876Z,19.18
2023-05-13T05:42:03.921Z,19.18
2023-05-13T05:44:48.739Z,19.11
2023-05-13T05:47:33.352Z,18.96
2023-05-13T05:50:18.334Z,18.97
2023-05-13T05:53:03.771Z,19.01
2023-05-13T05:55:52.372Z,19.00
2023-05-13T05:58:38.564Z,19.00
2023-05-13T06:01:23.111Z,18.96
2023-05-13T06:04:08.146Z,18.95
2023-05-13T06:06:53.099Z,18.93
2023-05-13T06:09:39.915Z,18.97
2023-05-13T06:12:25.151Z,19.03
2023-05-13T06:15:10.450Z,19.09
2023-05-13T06:17:55.585Z,19.06
2023-05-13T06:20:40.318Z,19.20
2023-05-13T06:23:25.053Z,19.32
2023-05-13T06:26:09.687Z,19.34
2023-05-13T06:28:54.071Z,19.35
2023-05-13T06:31:38.815Z,19.49
2023-05-13T06:34:23.724Z,19.63
2023-05-13T06:37:08.947Z,19.77
2023-05-13T06:39:53.736Z,19.96
2023-05-13T06:42:40.520Z,20.24
2023-05-13T06:45:32.793Z,20.52
2023-05-13T06:48:18.692Z,20.69
2023-05-13T06:51:04.519Z,20.90
2023-05-13T06:53:49.171Z,21.17
2023-05-13T06:56:34.078Z,21.38
2023-05-13T06:59:20.959Z,21.59
2023-05-13T07:02:09.066Z,21.73
2023-05-13T07:04:54.051Z,21.88
2023-05-13T07:07:38.784Z,21.98
2023-05-13T07:10:23.871Z,21.86
2023-05-13T07:13:08.601Z,21.92
2023-05-13T07:15:53.492Z,22.01
2023-05-13T07:18:37.976Z,22.15
2023-05-13T07:21:22.550Z,22.49
2023-05-13T07:24:07.207Z,22.73
2023-05-13T07:26:52.089Z,22.97
2023-05-13T07:29:37.044Z,23.12
2023-05-13T07:32:21.618Z,23.30
2023-05-13T07:35:07.097Z,23.46
2023-05-13T07:37:52.012Z,23.47
2023-05-13T07:40:37.196Z,23.62
2023-05-13T07:43:24.899Z,23.87
2023-05-13T07:46:09.786Z,23.91
2023-05-13T07:48:54.584Z,23.78
2023-05-13T07:51:39.182Z,23.76
2023-05-13T07:54:23.953Z,23.85
2023-05-13T07:57:08.999Z,23.93
2023-05-13T07:59:53.517Z,24.02
2023-05-13T08:02:38.872Z,24.07
2023-05-13T08:05:24.272Z,24.35
2023-05-13T08:08:08.775Z,24.70
2023-05-13T08:10:53.337Z,25.25
2023-05-13T08:13:37.929Z,25.45
2023-05-13T08:16:23.101Z,25.12
2023-05-13T08:19:08.954Z,25.34
2023-05-13T08:21:53.749Z,25.41
2023-05-13T08:24:40.312Z,25.31
2023-05-13T08:27:24.946Z,25.07
2023-05-13T08:30:10.412Z,24.94
2023-05-13T08:32:55.355Z,25.45
2023-05-13T08:35:40.096Z,25.74
2023-05-13T08:38:24.974Z,26.13
2023-05-13T08:41:12.488Z,26.38
2023-05-13T08:43:58.247Z,26.61
2023-05-13T08:46:52.734Z,27.06
2023-05-13T08:49:37.802Z,27.33
2023-05-13T08:52:22.675Z,27.46
2023-05-13T08:55:08.385Z,27.51
2023-05-13T08:57:53.143Z,27.84
2023-05-13T09:00:38.843Z,28.22
2023-05-13T09:03:25.314Z,28.75
2023-05-13T09:06:10.172Z,29.02
2023-05-13T09:08:55.520Z,28.62
2023-05-13T09:11:42.608Z,27.06
2023-05-13T09:14:32.066Z,26.11
2023-05-13T09:17:16.946Z,25.87
2023-05-13T09:20:08.206Z,25.40
2023-05-13T09:23:12.603Z,25.16
2023-05-13T09:25:57.336Z,25.93
2023-05-13T09:28:41.841Z,26.75
2023-05-13T09:31:32.961Z,27.25
2023-05-13T09:34:29.543Z,27.80
2023-05-13T09:37:17.920Z,28.03
2023-05-13T09:40:03.217Z,28.41
2023-05-13T09:42:48.032Z,28.66
2023-05-13T09:45:32.941Z,28.66
2023-05-13T09:48:18.706Z,28.80
2023-05-13T09:51:03.514Z,29.08
2023-05-13T09:53:48.315Z,29.44
2023-05-13T09:56:35.220Z,29.60
2023-05-13T09:59:19.775Z,29.93
2023-05-13T10:02:06.336Z,30.29
2023-05-13T10:04:52.555Z,30.26
2023-05-13T10:07:38.729Z,29.68
2023-05-13T10:10:23.751Z,29.59
2023-05-13T10:13:12.531Z,30.19
2023-05-13T10:15:58.914Z,30.72
2023-05-13T10:18:46.196Z,31.21
2023-05-13T10:21:31.972Z,31.31
2023-05-13T10:24:17.233Z,31.73
2023-05-13T10:27:04.170Z,30.57
2023-05-13T10:29:52.403Z,29.76
2023-05-13T10:32:41.967Z,30.07
2023-05-13T10:35:29.298Z,29.36
2023-05-13T10:38:38.356Z,27.67
2023-05-13T10:41:47.886Z,25.87
2023-05-13T10:44:33.248Z,26.52
2023-05-13T10:47:18.176Z,27.73
2023-05-13T10:50:21.386Z,29.05
2023-05-13T10:53:17.140Z,30.02
2023-05-13T10:56:07.130Z,30.40
2023-05-13T10:59:03.963Z,31.01
2023-05-13T11:01:49.018Z,31.38
2023-05-13T11:05:00.026Z,32.31
2023-05-13T11:07:55.686Z,32.48
2023-05-13T11:10:41.078Z,32.65
2023-05-13T11:13:36.396Z,33.11
2023-05-13T11:16:24.775Z,33.78
2023-05-13T11:19:22.268Z,34.22
2023-05-13T11:22:13.470Z,33.55
2023-05-13T11:25:09.365Z,33.16
2023-05-13T11:27:54.108Z,33.47
2023-05-13T11:30:38.937Z,33.90
2023-05-13T11:33:23.597Z,33.54
2023-05-13T11:36:08.578Z,33.81
2023-05-13T11:38:53.633Z,34.20
2023-05-13T11:41:41.430Z,34.99
2023-05-13T11:44:26.771Z,35.52
2023-05-13T11:47:11.626Z,35.16
2023-05-13T11:49:57.863Z,34.45
2023-05-13T11:52:42.910Z,33.91
2023-05-13T11:55:33.356Z,33.40
2023-05-13T11:58:20.821Z,33.33
2023-05-13T12:01:05.383Z,33.87
2023-05-13T12:03:49.963Z,34.52
2023-05-13T12:06:35.308Z,35.01
2023-05-13T12:09:22.209Z,35.35
2023-05-13T12:12:07.321Z,34.56
2023-05-13T12:14:53.571Z,34.59
2023-05-13T12:17:38.999Z,35.42
2023-05-13T12:20:24.451Z,36.33
2023-05-13T12:23:11.173Z,36.56
2023-05-13T12:25:56.048Z,36.49
2023-05-13T12:28:40.912Z,35.87
2023-05-13T12:31:25.822Z,35.50
2023-05-13T12:34:10.519Z,35.35
2023-05-13T12:36:55.837Z,34.59
2023-05-13T12:39:41.957Z,34.87
2023-05-13T12:42:26.797Z,35.50
2023-05-13T12:45:11.652Z,35.84
2023-05-13T12:47:57.102Z,36.31
2023-05-13T12:50:41.986Z,36.76
2023-05-13T12:53:26.894Z,37.31
2023-05-13T12:56:11.605Z,37.38
2023-05-13T12:58:57.032Z,37.76
2023-05-13T13:01:42.146Z,37.98
2023-05-13T13:04:26.968Z,37.61
2023-05-13T13:07:13.779Z,37.20
2023-05-13T13:09:58.514Z,36.12
2023-05-13T13:12:43.353Z,35.38
2023-05-13T13:15:28.274Z,33.30
2023-05-13T13:18:13.183Z,30.77
2023-05-13T13:20:58.446Z,28.94
2023-05-13T13:23:43.310Z,27.34
2023-05-13T13:26:28.349Z,25.72
2023-05-13T13:29:12.854Z,24.89
2023-05-13T13:31:57.382Z,24.08
2023-05-13T13:34:42.420Z,23.74
2023-05-13T13:37:27.368Z,23.11
2023-05-13T13:40:12.370Z,23.93
2023-05-13T13:42:57.285Z,25.41
2023-05-13T13:45:42.048Z,27.64
2023-05-13T13:48:27.020Z,29.47
2023-05-13T13:51:11.573Z,28.63
2023-05-13T13:53:55.820Z,27.15
2023-05-13T13:56:40.430Z,27.33
2023-05-13T13:59:25.042Z,28.16
2023-05-13T14:02:10.019Z,29.53
2023-05-13T14:04:54.467Z,30.26
2023-05-13T14:07:39.536Z,30.97
2023-05-13T14:10:24.367Z,31.09
2023-05-13T14:13:09.018Z,30.42
2023-05-13T14:15:53.548Z,30.06
2023-05-13T14:18:38.122Z,31.33
2023-05-13T14:21:22.875Z,32.38
2023-05-13T14:24:08.270Z,31.79
2023-05-13T14:26:52.986Z,31.83
2023-05-13T14:29:37.659Z,32.90
2023-05-13T14:32:22.122Z,34.30
2023-05-13T14:35:07.143Z,34.51
2023-05-13T14:37:51.646Z,33.44
2023-05-13T14:40:36.277Z,33.15
2023-05-13T14:43:21.861Z,32.91
2023-05-13T14:46:07.176Z,32.34
2023-05-13T14:48:51.562Z,31.59
2023-05-13T14:51:36.094Z,31.67
2023-05-13T14:54:21.393Z,32.97
2023-05-13T14:57:06.875Z,34.50
2023-05-13T14:59:51.679Z,35.25
2023-05-13T15:02:42.465Z,35.90
2023-05-13T15:05:30.380Z,36.60
2023-05-13T15:08:15.907Z,36.92
2023-05-13T15:11:00.670Z,36.99
2023-05-13T15:13:45.492Z,37.31
2023-05-13T15:16:30.166Z,37.23
2023-05-13T15:19:14.722Z,36.67
2023-05-13T15:21:59.823Z,35.58
2023-05-13T15:24:44.799Z,35.00
2023-05-13T15:27:29.182Z,34.91
2023-05-13T15:30:13.818Z,35.12
2023-05-13T15:32:58.533Z,34.98
2023-05-13T15:35:43.147Z,35.05
2023-05-13T15:38:28.070Z,34.21
2023-05-13T15:41:12.483Z,33.36
2023-05-13T15:43:57.145Z,32.50
2023-05-13T15:46:42.186Z,32.53
2023-05-13T15:49:27.650Z,32.45
2023-05-13T15:52:12.348Z,32.03
2023-05-13T15:54:57.444Z,31.31
2023-05-13T15:57:42.228Z,30.89
2023-05-13T16:00:26.769Z,30.66
2023-05-13T16:03:11.414Z,30.38
2023-05-13T16:05:55.786Z,30.80
2023-05-13T16:08:40.626Z,30.58
2023-05-13T16:11:25.090Z,30.34
2023-05-13T16:14:10.222Z,30.29
2023-05-13T16:16:55.382Z,30.04
2023-05-13T16:19:40.618Z,30.14
2023-05-13T16:22:33.923Z,30.24
2023-05-13T16:25:18.637Z,29.02
2023-05-13T16:28:03.099Z,27.33
2023-05-13T16:30:47.973Z,25.85
2023-05-13T16:33:33.393Z,24.74
2023-05-13T16:36:17.919Z,23.87
2023-05-13T16:39:03.420Z,23.23
2023-05-13T16:41:48.183Z,22.78
2023-05-13T16:44:33.070Z,22.35
2023-05-13T16:47:17.690Z,21.96
2023-05-13T16:50:02.877Z,21.68
2023-05-13T16:52:47.897Z,21.91
2023-05-13T16:55:32.732Z,22.66
2023-05-13T16:58:17.417Z,23.23
2023-05-13T17:01:02.764Z,23.52
2023-05-13T17:03:47.237Z,23.45
2023-05-13T17:06:31.964Z,22.93
2023-05-13T17:09:16.671Z,22.08
2023-05-13T17:12:01.207Z,21.44
2023-05-13T17:14:45.754Z,21.00
2023-05-13T17:17:30.319Z,20.70
2023-05-13T17:20:15.121Z,20.38
2023-05-13T17:23:00.002Z,19.99
2023-05-13T17:25:45.285Z,19.63
2023-05-13T17:28:32.651Z,19.24
2023-05-13T17:31:17.429Z,18.89
2023-05-13T17:34:02.197Z,18.54
2023-05-13T17:36:49.857Z,18.18
2023-05-13T17:39:34.935Z,17.82
2023-05-13T17:42:19.872Z,17.55
2023-05-13T17:45:04.845Z,17.27
2023-05-13T17:47:49.334Z,17.00
2023-05-13T17:50:34.239Z,16.75
2023-05-13T17:53:19.269Z,16.52
2023-05-13T17:56:05.084Z,16.32
2023-05-13T17:58:49.949Z,16.08
2023-05-13T18:01:34.495Z,15.81
2023-05-13T18:04:19.063Z,15.53
2023-05-13T18:07:03.450Z,15.28
2023-05-13T18:09:49.901Z,15.06
2023-05-13T18:12:34.748Z,14.94
2023-05-13T18:15:19.646Z,14.85
2023-05-13T18:18:04.968Z,14.76
2023-05-13T18:20:50.649Z,14.70
2023-05-13T18:23:35.680Z,14.65
2023-05-13T18:26:21.143Z,14.68
2023-05-13T18:29:06.266Z,14.71
2023-05-13T18:31:51.056Z,14.64
2023-05-13T18:34:36.119Z,14.50
2023-05-13T18:37:20.906Z,14.35
2023-05-13T18:40:06.343Z,14.21
2023-05-13T18:42:50.995Z,14.10
2023-05-13T18:45:35.646Z,14.26
2023-05-13T18:48:20.661Z,14.55
2023-05-13T18:51:05.197Z,14.76
2023-05-13T18:53:49.583Z,14.92
2023-05-13T18:56:34.296Z,15.04
2023-05-13T18:59:19.127Z,15.04
2023-05-13T19:02:03.872Z,15.01
2023-05-13T19:04:48.561Z,14.96
2023-05-13T19:07:33.052Z,14.81
2023-05-13T19:10:17.973Z,14.75
2023-05-13T19:13:02.993Z,14.71
2023-05-13T19:15:48.451Z,14.69
2023-05-13T19:18:33.788Z,14.67
2023-05-13T19:21:18.981Z,14.62
2023-05-13T19:24:03.863Z,14.49
2023-05-13T19:26:49.002Z,14.33
2023-05-13T19:29:34.679Z,14.11
2023-05-13T19:32:19.301Z,13.91
2023-05-13T19:35:04.593Z,13.73
2023-05-13T19:37:49.671Z,13.55
2023-05-13T19:40:34.175Z,13.44
2023-05-13T19:43:18.933Z,13.34
2023-05-13T19:46:03.810Z,13.23
2023-05-13T19:48:48.490Z,13.16
2023-05-13T19:51:32.891Z,13.08
2023-05-13T19:54:17.788Z,12.99
2023-05-13T19:57:02.359Z,12.89
2023-05-13T19:59:47.252Z,12.82
2023-05-13T20:02:32.124Z,12.73
2023-05-13T20:05:17.032Z,12.68
2023-05-13T20:08:02.020Z,12.61
2023-05-13T20:10:46.978Z,12.47
2023-05-13T20:13:32.012Z,12.27
2023-05-13T20:16:16.562Z,12.12
2023-05-13T20:19:01.660Z,12.03
2023-05-13T20:21:46.515Z,11.97
2023-05-13T20:24:31.067Z,11.90
2023-05-13T20:27:16.898Z,11.86
2023-05-13T20:30:01.668Z,11.82
2023-05-13T20:32:46.572Z,11.76
2023-05-13T20:35:31.455Z,11.70
2023-05-13T20:38:16.978Z,11.65
2023-05-13T20:41:01.636Z,11.61
2023-05-13T20:43:46.658Z,11.60
2023-05-13T20:46:31.118Z,11.61
2023-05-13T20:49:16.259Z,11.63
2023-05-13T20:52:02.975Z,11.63
2023-05-13T20:54:47.702Z,11.61
2023-05-13T20:57:32.594Z,11.63
2023-05-13T21:00:17.325Z,11.64
2023-05-13T21:03:02.195Z,11.66
2023-05-13T21:05:47.016Z,11.71
2023-05-13T21:08:36.098Z,11.74
2023-05-13T21:11:20.827Z,11.79
2023-05-13T21:14:05.749Z,11.78
2023-05-13T21:16:50.333Z,11.75
2023-05-13T21:19:35.202Z,11.69
2023-05-13T21:22:20.111Z,11.65
2023-05-13T21:25:05.930Z,11.58
2023-05-13T21:27:50.693Z,11.54
2023-05-13T21:30:35.680Z,11.48
2023-05-13T21:33:20.173Z,11.41
2023-05-13T21:36:04.889Z,11.35
2023-05-13T21:38:50.011Z,11.26
2023-05-13T21:41:35.219Z,11.15
2023-05-13T21:44:19.750Z,11.09
2023-05-13T21:47:04.232Z,11.07
2023-05-13T21:49:49.166Z,11.01
2023-05-13T21:52:34.249Z,10.98
2023-05-13T21:55:18.693Z,10.94
2023-05-13T21:58:03.359Z,10.89
2023-05-13T22:00:48.381Z,10.82
2023-05-13T22:03:34.987Z,10.80
2023-05-13T22:06:20.009Z,10.80
2023-05-13T22:09:06.165Z,10.76
2023-05-13T22:11:51.092Z,10.70
2023-05-13T22:14:36.037Z,10.54
2023-05-13T22:17:21.618Z,10.35
2023-05-13T22:20:07.136Z,10.17
2023-05-13T22:22:51.830Z,10.02
2023-05-13T22:25:36.326Z,9.89
2023-05-13T22:28:21.744Z,9.80
2023-05-13T22:31:06.286Z,9.75
2023-05-13T22:33:50.805Z,9.74
2023-05-13T22:36:35.330Z,9.69
2023-05-13T22:39:19.848Z,9.64
2023-05-13T22:42:04.803Z,9.61
2023-05-13T22:44:49.426Z,9.53
2023-05-13T22:47:36.405Z,9.47
2023-05-13T22:50:21.627Z,9.40
2023-05-13T22:53:06.373Z,9.37
2023-05-13T22:55:51.834Z,9.35
2023-05-13T22:58:36.476Z,9.34
2023-05-13T23:01:20.875Z,9.34
2023-05-13T23:04:05.989Z,9.31
2023-05-13T23:06:50.884Z,9.26
2023-05-13T23:09:35.818Z,9.24
2023-05-13T23:12:20.188Z,9.24
2023-05-13T23:15:06.326Z,9.26
2023-05-13T23:17:51.348Z,9.25
2023-05-13T23:20:36.311Z,9.27
2023-05-13T23:23:22.000Z,9.26
2023-05-13T23:26:06.637Z,9.27
2023-05-13T23:28:51.224Z,9.26
2023-05-13T23:31:35.945Z,9.25
2023-05-13T23:34:20.884Z,9.20
2023-05-13T23:37:05.302Z,9.17
2023-05-13T23:39:49.849Z,9.02
2023-05-13T23:42:35.355Z,8.88
2023-05-13T23:45:20.042Z,8.72
2023-05-13T23:48:05.289Z,8.62
2023-05-13T23:50:49.975Z,8.53
2023-05-13T23:53:34.305Z,8.45
2023-05-13T23:56:18.907Z,8.35
2023-05-13T23:59:03.393Z,8.22
